Terminal Aerodrome Forecast
Issued by NWS Charleston, WV

Current Version | Previous Version | Text Only | Print | Product List | Glossary Off
Versions: 1 2 3 4 5 6 7 8 9 10 11 12 13 14 15 16 17 18 19 20 21 22 23 24 25 26

000
FTUS41 KRLX 061735
TAFEKN
TAF
KEKN 061735Z 0618/0718 14011G20KT 6SM -RA OVC035
      TEMPO 0618/0622 2SM SHRA BR OVC005
     FM062200 14011G20KT 2SM -RA OVC035
     FM070200 21005KT 4SM BR OVC015
     FM070600 28009G16KT 3SM BR BKN008
     FM071400 28004KT 6SM BR BKN008
     FM071600 28004KT P6SM SCT140=

USA.gov is the U.S. government's official web portal to all federal, state and local government web resources and services.